Waterloo Airport
CYKF : rendu visible

Aérodrome :











RETROUVEZ-NOUS SUR...

 
LOGIN :

S'inscrire | Disclaimer

   EN    FR    IT 

 









Légende :    VFR   VFR Marginal   IFR   IFR Intensif   IFR Très Intensif
Visi : 
Plafond : 
>= 8 km
>= 3000ft
5 à 8 km
1000 à 3000 ft
1500m à 5 km
500 à 1000 ft
800 à 1500m
200 à 500 ft
< 800m
< 200 ft
Symboles :   Orages  Brouillard  Fortes neiges  Fortes précipitations  Vent > 20 kt






- Altitude de l'aérodrome : 1054 ft
- Code IATA : YKF


CYKF - Waterloo

DERNIER METAR :
  • 170900Z AUTO 07007KT 9SM OVC210 M08/M10 A3027 RMK SLP269

METARs EXPIRÉS :
  • 170800Z AUTO 04005KT 9SM SCT190 M08/M11 A3029 RMK SLP279
  • 170700Z AUTO 03005KT 9SM CLR M08/M10 A3030 RMK SLP280

TAF TAF CYKF
Valide du 17 à 08h jusqu'au 17 à 20h UTC


170738Z 1708/1720 10012KT P6SM SKC
BECMG 1716/1718 13008KT RMK FCST BASED ON AUTO OBS. NXT FCST BY 171400Z



MET'MAP, la Météo Aéronautique d'un coup d'oeil ! - Copyright ORBIFLY Décembre 2007 - Disclaimer

ORBIFLY MET'MAP TEAM :

Programmation & Développement : Alexandra Zaïnal
Conception & Développement : Baudouin d'Aumeries
Co-Programmation & Développement : Marc-Olivier Méhu
Soutien technique & logistique : Manuel Goepfert

Contact : metmap@orbifly.com




SOURCES & CREDITS :

   NOAA       Earth
Advisory